createdAt,value
2018-04-02T00:01:35.953Z,6.47
2018-04-02T00:04:03.455Z,6.45
2018-04-02T00:06:30.959Z,6.47
2018-04-02T00:08:58.460Z,6.44
2018-04-02T00:11:26.032Z,6.45
2018-04-02T00:13:53.783Z,6.48
2018-04-02T00:16:21.637Z,6.48
2018-04-02T00:18:49.453Z,6.50
2018-04-02T00:21:16.962Z,6.37
2018-04-02T00:23:44.730Z,6.37
2018-04-02T00:26:12.341Z,6.32
2018-04-02T00:28:39.884Z,6.23
2018-04-02T00:31:07.395Z,6.14
2018-04-02T00:33:34.894Z,6.10
2018-04-02T00:36:02.392Z,6.00
2018-04-02T00:38:29.890Z,6.01
2018-04-02T00:40:59.480Z,5.97
2018-04-02T00:43:27.067Z,5.98
2018-04-02T00:45:54.573Z,5.89
2018-04-02T00:48:22.083Z,5.84
2018-04-02T00:50:49.591Z,5.90
2018-04-02T00:53:17.103Z,5.94
2018-04-02T00:55:44.671Z,5.98
2018-04-02T00:58:12.166Z,6.11
2018-04-02T01:00:39.684Z,6.09
2018-04-02T01:03:07.191Z,6.09
2018-04-02T01:05:34.715Z,6.14
2018-04-02T01:08:02.254Z,6.12
2018-04-02T01:10:29.775Z,6.09
2018-04-02T01:12:57.283Z,6.08
2018-04-02T01:15:24.782Z,6.05
2018-04-02T01:17:52.282Z,6.07
2018-04-02T01:20:19.830Z,5.89
2018-04-02T01:22:47.349Z,5.84
2018-04-02T01:25:15.011Z,5.84
2018-04-02T01:27:42.984Z,5.74
2018-04-02T01:30:10.487Z,5.65
2018-04-02T01:32:37.995Z,5.62
2018-04-02T01:35:05.561Z,5.51
2018-04-02T01:37:33.174Z,5.46
2018-04-02T01:40:00.729Z,5.44
2018-04-02T01:42:28.237Z,5.42
2018-04-02T01:44:55.753Z,5.42
2018-04-02T01:47:23.256Z,5.37
2018-04-02T01:49:50.748Z,5.33
2018-04-02T01:52:18.248Z,5.28
2018-04-02T01:54:45.768Z,5.30
2018-04-02T01:57:13.845Z,5.26
2018-04-02T01:59:41.399Z,5.24
2018-04-02T02:02:08.909Z,5.21
2018-04-02T02:04:36.554Z,5.21
2018-04-02T02:07:04.075Z,5.13
2018-04-02T02:09:31.569Z,5.09
2018-04-02T02:11:59.096Z,5.07
2018-04-02T02:14:26.599Z,5.05
2018-04-02T02:16:54.162Z,4.96
2018-04-02T02:19:21.675Z,4.95
2018-04-02T02:21:49.205Z,4.92
2018-04-02T02:24:16.691Z,4.91
2018-04-02T02:26:44.199Z,4.82
2018-04-02T02:29:11.722Z,4.76
2018-04-02T02:31:39.239Z,4.72
2018-04-02T02:34:06.734Z,4.64
2018-04-02T02:36:34.236Z,4.49
2018-04-02T02:39:01.751Z,4.37
2018-04-02T02:41:29.255Z,4.33
2018-04-02T02:43:56.757Z,4.27
2018-04-02T02:46:24.261Z,4.19
2018-04-02T02:48:51.773Z,4.12
2018-04-02T02:51:19.343Z,4.03
2018-04-02T02:53:46.877Z,3.99
2018-04-02T02:56:14.385Z,3.96
2018-04-02T02:58:41.896Z,3.94
2018-04-02T03:01:09.434Z,3.89
2018-04-02T03:03:37.214Z,3.85
2018-04-02T03:06:04.704Z,3.81
2018-04-02T03:08:32.213Z,3.75
2018-04-02T03:10:59.701Z,3.75
2018-04-02T03:13:27.250Z,3.77
2018-04-02T03:15:54.806Z,3.72
2018-04-02T03:18:22.320Z,3.72
2018-04-02T03:20:49.820Z,3.71
2018-04-02T03:23:17.444Z,3.80
2018-04-02T03:25:44.947Z,3.75
2018-04-02T03:28:12.484Z,3.72
2018-04-02T03:30:39.997Z,3.73
2018-04-02T03:33:07.508Z,3.70
2018-04-02T03:35:35.012Z,3.66
2018-04-02T03:38:02.498Z,3.59
2018-04-02T03:40:30.386Z,3.58
2018-04-02T03:42:57.875Z,3.52
2018-04-02T03:45:25.430Z,3.46
2018-04-02T03:47:52.935Z,3.43
2018-04-02T03:50:20.430Z,3.39
2018-04-02T03:52:47.930Z,3.39
2018-04-02T03:55:15.448Z,3.38
2018-04-02T03:57:43.045Z,3.37
2018-04-02T04:00:10.548Z,3.34
2018-04-02T04:02:38.059Z,3.26
2018-04-02T04:05:05.548Z,3.23
2018-04-02T04:07:33.164Z,3.18
2018-04-02T04:10:00.670Z,3.11
2018-04-02T04:12:28.216Z,3.08
2018-04-02T04:14:55.724Z,3.03
2018-04-02T04:17:23.193Z,3.01
2018-04-02T04:19:50.688Z,3.02
2018-04-02T04:22:18.206Z,3.06
2018-04-02T04:24:45.715Z,3.03
2018-04-02T04:27:13.343Z,3.05
2018-04-02T04:29:40.859Z,3.00
2018-04-02T04:32:08.349Z,2.97
2018-04-02T04:34:35.858Z,3.01
2018-04-02T04:37:03.362Z,2.97
2018-04-02T04:39:30.869Z,2.93
2018-04-02T04:41:58.379Z,2.90
2018-04-02T04:44:25.877Z,2.88
2018-04-02T04:46:53.392Z,2.93
2018-04-02T04:49:21.089Z,2.89
2018-04-02T04:51:48.580Z,2.87
2018-04-02T04:54:16.209Z,2.81
2018-04-02T04:56:43.681Z,2.79
2018-04-02T04:59:11.252Z,2.85
2018-04-02T05:01:38.735Z,2.87
2018-04-02T05:04:06.241Z,2.82
2018-04-02T05:06:33.731Z,2.82
2018-04-02T05:09:01.233Z,2.80
2018-04-02T05:11:28.745Z,2.77
2018-04-02T05:13:56.243Z,2.79
2018-04-02T05:16:23.742Z,2.82
2018-04-02T05:18:51.239Z,2.83
2018-04-02T05:21:18.771Z,2.87
2018-04-02T05:23:46.251Z,2.87
2018-04-02T05:26:13.767Z,2.98
2018-04-02T05:28:41.261Z,3.03
2018-04-02T05:31:08.797Z,3.08
2018-04-02T05:33:36.281Z,3.07
2018-04-02T05:36:03.785Z,3.11
2018-04-02T05:38:31.283Z,3.16
2018-04-02T05:40:58.782Z,3.26
2018-04-02T05:43:26.300Z,3.37
2018-04-02T05:45:53.782Z,3.39
2018-04-02T05:48:21.289Z,3.47
2018-04-02T05:50:48.839Z,3.51
2018-04-02T05:53:16.346Z,3.60
2018-04-02T05:55:43.845Z,3.67
2018-04-02T05:58:11.346Z,3.75
2018-04-02T06:00:38.836Z,3.89
2018-04-02T06:03:06.322Z,3.99
2018-04-02T06:05:33.878Z,4.12
2018-04-02T06:08:01.344Z,4.19
2018-04-02T06:10:28.843Z,4.30
2018-04-02T06:12:56.338Z,4.31
2018-04-02T06:15:23.853Z,4.52
2018-04-02T06:17:51.333Z,4.50
2018-04-02T06:20:18.825Z,4.64
2018-04-02T06:22:46.324Z,4.76
2018-04-02T06:25:14.035Z,4.90
2018-04-02T06:27:42.015Z,4.97
2018-04-02T06:30:09.501Z,5.01
2018-04-02T06:32:37.005Z,5.12
2018-04-02T06:35:04.484Z,5.17
2018-04-02T06:37:31.984Z,5.44
2018-04-02T06:39:59.477Z,5.53
2018-04-02T06:42:27.025Z,5.76
2018-04-02T06:44:54.526Z,5.77
2018-04-02T06:47:22.123Z,6.03
2018-04-02T06:49:49.675Z,6.20
2018-04-02T06:52:17.185Z,6.50
2018-04-02T06:54:44.755Z,6.65
2018-04-02T06:57:12.238Z,6.75
2018-04-02T06:59:39.756Z,6.88
2018-04-02T07:02:07.252Z,7.08
2018-04-02T07:04:34.883Z,7.13
2018-04-02T07:07:02.339Z,7.32
2018-04-02T07:09:29.835Z,7.54
2018-04-02T07:11:57.568Z,7.61
2018-04-02T07:14:25.043Z,7.88
2018-04-02T07:16:52.540Z,7.96
2018-04-02T07:19:20.065Z,8.54
2018-04-02T07:21:47.876Z,8.73
2018-04-02T07:24:15.401Z,9.11
2018-04-02T07:26:43.053Z,9.42
2018-04-02T07:29:10.569Z,9.55
2018-04-02T07:31:38.060Z,9.76
2018-04-02T07:34:05.672Z,9.70
2018-04-02T07:36:33.167Z,9.74
2018-04-02T07:39:00.668Z,9.78
2018-04-02T07:41:28.155Z,9.77
2018-04-02T07:43:55.803Z,10.04
2018-04-02T07:46:23.364Z,10.13
2018-04-02T07:48:50.887Z,10.16
2018-04-02T07:51:18.385Z,10.11
2018-04-02T07:53:45.887Z,10.38
2018-04-02T07:56:13.408Z,10.34
2018-04-02T07:58:40.896Z,10.59
2018-04-02T08:01:08.431Z,10.56
2018-04-02T08:03:36.010Z,10.78
2018-04-02T08:06:03.517Z,10.89
2018-04-02T08:08:31.107Z,10.99
2018-04-02T08:10:58.597Z,11.02
2018-04-02T08:13:26.071Z,11.08
2018-04-02T08:15:53.590Z,11.04
2018-04-02T08:18:21.099Z,11.06
2018-04-02T08:20:48.612Z,11.20
2018-04-02T08:23:16.281Z,11.42
2018-04-02T08:25:44.884Z,11.31
2018-04-02T08:28:13.282Z,11.37
2018-04-02T08:30:40.833Z,11.51
2018-04-02T08:33:13.177Z,11.58
2018-04-02T08:35:40.757Z,11.60
2018-04-02T08:38:08.231Z,11.64
2018-04-02T08:40:35.728Z,11.82
2018-04-02T08:43:03.257Z,11.96
2018-04-02T08:45:30.784Z,11.95
2018-04-02T08:47:58.263Z,12.37
2018-04-02T08:50:25.856Z,12.32
2018-04-02T08:52:53.453Z,12.64
2018-04-02T08:55:20.944Z,12.56
2018-04-02T08:57:48.453Z,13.02
2018-04-02T09:00:16.080Z,13.13
2018-04-02T09:02:44.653Z,13.26
2018-04-02T09:05:12.166Z,13.22
2018-04-02T09:07:39.823Z,13.48
2018-04-02T09:10:07.912Z,13.61
2018-04-02T09:12:36.571Z,13.63
2018-04-02T09:15:04.232Z,13.60
2018-04-02T09:17:31.743Z,13.53
2018-04-02T09:19:59.236Z,13.48
2018-04-02T09:22:26.832Z,13.88
2018-04-02T09:24:54.395Z,14.01
2018-04-02T09:27:21.911Z,13.88
2018-04-02T09:29:49.403Z,13.73
2018-04-02T09:32:17.228Z,14.03
2018-04-02T09:34:44.721Z,14.12
2018-04-02T09:37:12.200Z,13.57
2018-04-02T09:39:39.716Z,13.14
2018-04-02T09:42:07.240Z,13.29
2018-04-02T09:44:34.770Z,13.20
2018-04-02T09:47:02.256Z,13.50
2018-04-02T09:49:29.731Z,13.65
2018-04-02T09:51:57.443Z,13.45
2018-04-02T09:54:24.942Z,13.76
2018-04-02T09:56:52.441Z,13.75
2018-04-02T09:59:19.949Z,13.66
2018-04-02T10:01:47.734Z,13.52
2018-04-02T10:04:15.342Z,13.47
2018-04-02T10:06:42.860Z,13.85
2018-04-02T10:09:10.351Z,13.98
2018-04-02T10:11:37.855Z,14.06
2018-04-02T10:14:05.340Z,14.50
2018-04-02T10:16:32.870Z,14.85
2018-04-02T10:19:00.371Z,15.37
2018-04-02T10:21:27.899Z,15.83
2018-04-02T10:23:55.467Z,15.66
2018-04-02T10:26:23.077Z,15.74
2018-04-02T10:28:50.580Z,16.37
2018-04-02T10:31:18.103Z,16.90
2018-04-02T10:33:45.742Z,17.17
2018-04-02T10:36:13.892Z,17.18
2018-04-02T10:38:41.466Z,17.12
2018-04-02T10:41:08.972Z,16.97
2018-04-02T10:43:36.564Z,17.04
2018-04-02T10:46:04.084Z,17.13
2018-04-02T10:48:31.631Z,17.67
2018-04-02T10:50:59.829Z,17.98
2018-04-02T10:53:27.344Z,18.63
2018-04-02T10:55:54.891Z,19.04
2018-04-02T10:58:22.404Z,19.12
2018-04-02T11:00:49.967Z,18.97
2018-04-02T11:03:17.490Z,19.19
2018-04-02T11:05:44.989Z,19.04
2018-04-02T11:08:12.518Z,19.25
2018-04-02T11:10:39.995Z,19.17
2018-04-02T11:13:07.551Z,19.64
2018-04-02T11:15:35.043Z,19.43
2018-04-02T11:18:02.632Z,19.94
2018-04-02T11:20:30.130Z,20.38
2018-04-02T11:22:57.685Z,20.27
2018-04-02T11:25:25.263Z,20.35
2018-04-02T11:27:52.782Z,20.66
2018-04-02T11:30:20.275Z,20.53
2018-04-02T11:32:47.793Z,20.27
2018-04-02T11:35:16.400Z,19.74
2018-04-02T11:37:43.905Z,19.12
2018-04-02T11:40:11.491Z,19.26
2018-04-02T11:42:38.993Z,19.64
2018-04-02T11:45:06.584Z,19.98
2018-04-02T11:47:34.047Z,20.18
2018-04-02T11:50:01.556Z,20.05
2018-04-02T11:52:29.044Z,20.82
2018-04-02T11:54:56.552Z,21.19
2018-04-02T11:57:24.070Z,22.07
2018-04-02T11:59:51.625Z,22.19
2018-04-02T12:02:19.131Z,21.83
2018-04-02T12:04:46.610Z,21.43
2018-04-02T12:07:14.506Z,22.88
2018-04-02T12:09:42.125Z,24.45
2018-04-02T12:12:09.686Z,25.51
2018-04-02T12:14:37.168Z,26.75
2018-04-02T12:17:04.683Z,27.49
2018-04-02T12:19:32.236Z,28.03
2018-04-02T12:21:59.716Z,28.80
2018-04-02T12:24:39.629Z,29.66
2018-04-02T12:27:09.016Z,28.83
2018-04-02T12:29:36.677Z,29.60
2018-04-02T12:32:04.212Z,30.19
2018-04-02T12:34:31.751Z,30.60
2018-04-02T12:36:59.240Z,30.00
2018-04-02T12:39:26.930Z,29.27
2018-04-02T12:41:54.440Z,28.38
2018-04-02T12:44:21.946Z,27.08
2018-04-02T12:46:49.450Z,27.24
2018-04-02T12:49:17.053Z,29.96
2018-04-02T12:51:44.539Z,30.64
2018-04-02T12:54:12.042Z,29.60
2018-04-02T12:56:39.921Z,29.97
2018-04-02T12:59:07.414Z,30.65
2018-04-02T13:01:34.929Z,30.22
2018-04-02T13:04:02.606Z,27.95
2018-04-02T13:06:30.102Z,26.89
2018-04-02T13:08:57.603Z,26.12
2018-04-02T13:11:25.094Z,25.68
2018-04-02T13:13:52.637Z,26.93
2018-04-02T13:16:20.948Z,28.17
2018-04-02T13:18:48.463Z,29.31
2018-04-02T13:21:15.959Z,29.32
2018-04-02T13:23:43.454Z,29.38
2018-04-02T13:26:10.940Z,29.88
2018-04-02T13:28:38.404Z,30.20
2018-04-02T13:31:05.910Z,30.34
2018-04-02T13:33:33.618Z,31.81
2018-04-02T13:36:01.101Z,33.38
2018-04-02T13:38:28.614Z,35.88
2018-04-02T13:40:56.119Z,37.52
2018-04-02T13:43:23.610Z,38.11
2018-04-02T13:45:51.097Z,38.91
2018-04-02T13:48:18.719Z,38.18
2018-04-02T13:50:46.235Z,35.79
2018-04-02T13:53:13.715Z,36.52
2018-04-02T13:55:41.218Z,35.51
2018-04-02T13:58:08.772Z,34.05
2018-04-02T14:00:36.254Z,33.92
2018-04-02T14:03:03.776Z,35.08
2018-04-02T14:05:31.301Z,35.04
2018-04-02T14:07:58.797Z,34.85
2018-04-02T14:10:26.308Z,35.83
2018-04-02T14:12:53.810Z,35.29
2018-04-02T14:15:21.301Z,33.94
2018-04-02T14:17:48.795Z,32.68
2018-04-02T14:20:16.319Z,32.60
2018-04-02T14:22:43.828Z,31.39
2018-04-02T14:25:11.287Z,31.54
2018-04-02T14:27:38.859Z,30.47
2018-04-02T14:30:06.402Z,28.43
2018-04-02T14:32:33.922Z,27.82
2018-04-02T14:35:01.401Z,25.91
2018-04-02T14:37:28.902Z,24.49
2018-04-02T14:39:56.424Z,24.39
2018-04-02T14:42:23.919Z,24.50
2018-04-02T14:44:51.459Z,25.50
2018-04-02T14:47:20.326Z,26.06
2018-04-02T14:49:48.998Z,25.52
2018-04-02T14:52:16.530Z,25.39
2018-04-02T14:54:44.098Z,26.25
2018-04-02T14:57:11.902Z,28.84
2018-04-02T14:59:39.410Z,31.57
2018-04-02T15:02:06.881Z,33.54
2018-04-02T15:04:34.708Z,34.39
2018-04-02T15:07:02.195Z,33.64
2018-04-02T15:09:29.673Z,31.17
2018-04-02T15:11:57.178Z,30.53
2018-04-02T15:14:25.572Z,30.26
2018-04-02T15:16:53.080Z,29.72
2018-04-02T15:19:20.555Z,30.73
2018-04-02T15:21:48.329Z,30.86
2018-04-02T15:24:15.817Z,31.28
2018-04-02T15:26:43.975Z,32.19
2018-04-02T15:29:11.510Z,31.23
2018-04-02T15:31:39.017Z,30.49
2018-04-02T15:34:06.524Z,29.29
2018-04-02T15:36:34.000Z,28.27
2018-04-02T15:39:01.596Z,26.52
2018-04-02T15:41:29.085Z,25.68
2018-04-02T15:43:56.580Z,26.05
2018-04-02T15:46:24.078Z,24.83
2018-04-02T15:48:51.584Z,24.23
2018-04-02T15:51:19.151Z,24.63
2018-04-02T15:53:46.644Z,24.42
2018-04-02T15:56:17.260Z,24.04
2018-04-02T15:58:44.757Z,24.52
2018-04-02T16:01:13.462Z,24.22
2018-04-02T16:03:40.954Z,24.20
2018-04-02T16:06:08.479Z,24.23
2018-04-02T16:08:35.972Z,24.41
2018-04-02T16:11:03.504Z,23.87
2018-04-02T16:13:31.043Z,23.34
2018-04-02T16:15:58.650Z,23.55
2018-04-02T16:18:26.253Z,22.80
2018-04-02T16:20:53.911Z,22.16
2018-04-02T16:23:22.881Z,21.42
2018-04-02T16:25:50.381Z,21.13
2018-04-02T16:28:18.088Z,20.73
2018-04-02T16:30:45.651Z,20.44
2018-04-02T16:33:13.192Z,20.06
2018-04-02T16:35:40.765Z,20.00
2018-04-02T16:40:58.572Z,19.96
2018-04-02T16:43:26.188Z,19.83
2018-04-02T16:45:54.113Z,19.77
2018-04-02T16:48:21.892Z,19.77
2018-04-02T16:50:49.637Z,19.64
2018-04-02T16:53:17.434Z,19.26
2018-04-02T16:55:49.022Z,19.07
2018-04-02T16:58:32.384Z,18.76
2018-04-02T17:01:00.703Z,18.58
2018-04-02T17:03:28.172Z,18.44
2018-04-02T17:06:02.340Z,18.33
2018-04-02T17:08:29.868Z,18.14
2018-04-02T17:10:57.358Z,18.17
2018-04-02T17:13:24.832Z,18.08
2018-04-02T17:15:52.323Z,18.03
2018-04-02T17:18:19.818Z,17.85
2018-04-02T17:20:47.381Z,17.82
2018-04-02T17:23:15.121Z,17.68
2018-04-02T17:25:42.627Z,17.68
2018-04-02T17:28:10.131Z,17.63
2018-04-02T17:30:37.641Z,17.57
2018-04-02T17:33:05.124Z,17.42
2018-04-02T17:35:32.634Z,17.40
2018-04-02T17:38:00.207Z,17.43
2018-04-02T17:40:28.707Z,17.24
2018-04-02T17:42:57.816Z,17.21
2018-04-02T17:45:25.438Z,17.11
2018-04-02T17:47:53.044Z,16.97
2018-04-02T17:50:21.144Z,16.81
2018-04-02T17:52:48.740Z,16.74
2018-04-02T17:55:20.233Z,16.61
2018-04-02T17:57:47.723Z,16.52
2018-04-02T18:00:15.354Z,16.36
2018-04-02T18:02:46.188Z,16.26
2018-04-02T18:05:14.266Z,16.24
2018-04-02T18:07:42.118Z,16.19
2018-04-02T18:10:09.631Z,16.11
2018-04-02T18:12:40.641Z,16.10
2018-04-02T18:15:08.297Z,16.10
2018-04-02T18:17:35.922Z,16.13
2018-04-02T18:20:03.493Z,16.05
2018-04-02T18:22:31.039Z,16.06
2018-04-02T18:25:00.727Z,15.96
2018-04-02T18:27:28.429Z,16.03
2018-04-02T18:29:55.924Z,15.88
2018-04-02T18:32:23.942Z,15.95
2018-04-02T18:34:57.063Z,15.93
2018-04-02T18:37:24.681Z,15.87
2018-04-02T18:39:52.205Z,15.79
2018-04-02T18:42:20.781Z,15.86
2018-04-02T18:44:48.927Z,15.74
2018-04-02T18:47:21.250Z,15.70
2018-04-02T18:49:51.864Z,15.63
2018-04-02T18:52:35.624Z,15.60
2018-04-02T18:55:03.085Z,15.55
2018-04-02T18:57:30.656Z,15.46
2018-04-02T18:59:58.346Z,15.36
2018-04-02T19:02:25.903Z,15.37
2018-04-02T19:04:53.350Z,15.40
2018-04-02T19:07:20.792Z,15.41
2018-04-02T19:09:48.273Z,15.40
2018-04-02T19:12:17.920Z,15.38
2018-04-02T19:14:45.448Z,15.32
2018-04-02T19:17:12.998Z,15.25
2018-04-02T19:19:40.558Z,15.03
2018-04-02T19:22:08.022Z,15.06
2018-04-02T19:24:35.465Z,14.99
2018-04-02T19:27:02.965Z,14.91
2018-04-02T19:29:30.440Z,14.94
2018-04-02T19:31:57.929Z,14.81
2018-04-02T19:34:25.357Z,14.71
2018-04-02T19:36:52.829Z,14.66
2018-04-02T19:44:08.098Z,14.56
2018-04-02T19:46:35.579Z,14.59
2018-04-02T19:49:03.013Z,14.73
2018-04-02T19:51:30.791Z,14.80
2018-04-02T19:53:58.276Z,14.88
2018-04-02T19:56:25.737Z,15.02
2018-04-02T19:58:53.212Z,15.13
2018-04-02T20:01:20.751Z,15.08
2018-04-02T20:03:48.288Z,15.03
2018-04-02T20:06:15.727Z,15.03
2018-04-02T20:08:43.385Z,15.00
2018-04-02T20:11:10.968Z,15.00
2018-04-02T20:13:38.545Z,14.97
2018-04-02T20:18:39.681Z,14.98
2018-04-02T20:21:07.268Z,14.94
2018-04-02T20:23:34.934Z,14.97
2018-04-02T20:26:02.430Z,14.95
2018-04-02T20:28:29.918Z,15.00
2018-04-02T20:30:57.362Z,15.00
2018-04-02T20:33:24.927Z,14.99
2018-04-02T20:35:52.504Z,15.05
2018-04-02T20:38:19.941Z,15.03
2018-04-02T20:40:47.414Z,15.04
2018-04-02T20:43:15.113Z,15.04
2018-04-02T20:45:42.547Z,15.08
2018-04-02T20:48:09.985Z,15.03
2018-04-02T20:50:37.473Z,15.07
2018-04-02T20:53:04.905Z,15.04
2018-04-02T20:55:32.631Z,15.05
2018-04-02T20:58:00.235Z,15.03
2018-04-02T21:00:27.734Z,14.93
2018-04-02T21:02:55.177Z,14.83
2018-04-02T21:05:22.855Z,14.67
2018-04-02T21:07:50.496Z,14.55
2018-04-02T21:10:19.086Z,14.42
2018-04-02T21:12:46.588Z,14.24
2018-04-02T21:15:14.021Z,14.13
2018-04-02T21:17:41.709Z,14.00
2018-04-02T21:20:09.218Z,13.82
2018-04-02T21:22:36.666Z,13.71
2018-04-02T21:25:04.150Z,13.69
2018-04-02T21:27:31.574Z,13.62
2018-04-02T21:29:59.081Z,13.62
2018-04-02T21:32:26.528Z,13.59
2018-04-02T21:34:53.954Z,13.49
2018-04-02T21:37:38.082Z,13.50
2018-04-02T21:40:06.536Z,13.59
2018-04-02T21:42:34.297Z,13.64
2018-04-02T21:45:01.771Z,13.78
2018-04-02T21:47:29.304Z,13.90
2018-04-02T21:49:56.782Z,13.92
2018-04-02T21:52:25.174Z,14.06
2018-04-02T21:54:53.373Z,14.15
2018-04-02T21:57:20.966Z,14.06
2018-04-02T21:59:48.406Z,14.07
2018-04-02T22:02:15.859Z,13.95
2018-04-02T22:04:43.317Z,13.98
2018-04-02T22:07:10.741Z,13.97
2018-04-02T22:09:38.178Z,13.94
2018-04-02T22:12:05.627Z,13.92
2018-04-02T22:14:33.063Z,13.91
2018-04-02T22:17:00.494Z,13.83
2018-04-02T22:19:27.933Z,13.76
2018-04-02T22:21:55.363Z,13.69
2018-04-02T22:24:22.793Z,13.62
2018-04-02T22:26:50.259Z,13.53
2018-04-02T22:29:17.693Z,13.42
2018-04-02T22:31:45.121Z,13.30
2018-04-02T22:34:12.553Z,13.22
2018-04-02T22:36:40.027Z,13.22
2018-04-02T22:39:07.526Z,13.19
2018-04-02T22:41:34.967Z,13.12
2018-04-02T22:44:08.531Z,13.07
2018-04-02T22:46:35.976Z,13.02
2018-04-02T22:49:03.426Z,12.90
2018-04-02T22:51:31.194Z,12.84
2018-04-02T22:53:58.878Z,12.78
2018-04-02T22:56:26.769Z,12.71
2018-04-02T22:58:54.197Z,12.66
2018-04-02T23:01:21.682Z,12.62
2018-04-02T23:03:49.144Z,12.60
2018-04-02T23:06:16.602Z,12.61
2018-04-02T23:08:44.135Z,12.61
2018-04-02T23:11:11.568Z,12.60
2018-04-02T23:13:39.007Z,12.61
2018-04-02T23:16:06.506Z,12.52
2018-04-02T23:18:33.950Z,12.53
2018-04-02T23:21:01.484Z,12.46
2018-04-02T23:23:28.924Z,12.67
2018-04-02T23:25:56.349Z,12.85
2018-04-02T23:28:23.801Z,12.77
2018-04-02T23:30:51.244Z,12.74
2018-04-02T23:33:18.690Z,12.78
2018-04-02T23:35:46.197Z,12.74
2018-04-02T23:38:13.621Z,12.67
2018-04-02T23:40:41.078Z,12.53
2018-04-02T23:43:08.517Z,12.60
2018-04-02T23:45:35.957Z,12.60
2018-04-02T23:48:03.381Z,12.66
2018-04-02T23:50:30.836Z,12.72
2018-04-02T23:52:58.261Z,12.78
2018-04-02T23:55:25.691Z,12.83
2018-04-02T23:57:53.132Z,12.79
